Time;durP1;ratioP1;P1;durP2;ratioP2;P2;SDS_P1;SDS_P2;PMS_P1;PMS_P2;Temp;Humidity;BMP_temperature;BMP_pressure;BME280_temperature;BME280_humidity;BME280_pressure;Samples;Min_cycle;Max_cycle;Signal;HPM_P1;HPM_P2
2023/05/28 00:01:17;;;;;;;126.90;18.50;;;;;;;;;;4992134;28;20385;-65
2023/05/28 00:03:44;;;;;;;90.45;15.63;;;;;;;;;;4975192;28;20038;-64
2023/05/28 00:06:11;;;;;;;77.05;13.73;;;;;;;;;;4990480;28;20051;-66
2023/05/28 00:08:38;;;;;;;114.35;17.20;;;;;;;;;;4990956;28;20415;-67
2023/05/28 00:11:05;;;;;;;60.50;13.02;;;;;;;;;;4973852;28;20050;-65
2023/05/28 00:13:33;;;;;;;91.63;16.35;;;;;;;;;;4991473;28;20092;-65
2023/05/28 00:16:00;;;;;;;60.47;13.52;;;;;;;;;;4992679;28;20100;-67
2023/05/28 00:18:28;;;;;;;66.07;13.25;;;;;;;;;;4991052;28;20085;-64
2023/05/28 00:20:55;;;;;;;60.42;13.77;;;;;;;;;;4974737;28;20141;-65
2023/05/28 00:23:21;;;;;;;44.10;11.02;;;;;;;;;;4974804;28;20097;-66
2023/05/28 00:25:48;;;;;;;54.90;12.32;;;;;;;;;;4991411;28;20047;-66
2023/05/28 00:28:15;;;;;;;57.78;13.85;;;;;;;;;;4992682;28;20043;-65
2023/05/28 00:30:41;;;;;;;67.57;15.02;;;;;;;;;;4973904;28;20081;-69
2023/05/28 00:33:08;;;;;;;72.03;13.32;;;;;;;;;;4991779;28;20064;-66
2023/05/28 00:35:35;;;;;;;68.40;13.75;;;;;;;;;;4991724;28;20054;-64
2023/05/28 00:38:02;;;;;;;76.97;13.00;;;;;;;;;;4989816;28;20049;-64
2023/05/28 00:40:28;;;;;;;60.10;12.02;;;;;;;;;;4991398;28;20051;-66
2023/05/28 00:42:55;;;;;;;58.75;11.82;;;;;;;;;;4989633;28;20043;-65
2023/05/28 00:45:22;;;;;;;48.15;11.45;;;;;;;;;;4989724;28;20038;-70
2023/05/28 00:47:49;;;;;;;51.65;12.15;;;;;;;;;;4990634;28;20120;-70
2023/05/28 00:50:16;;;;;;;71.47;13.38;;;;;;;;;;4990264;28;20088;-66
2023/05/28 00:52:45;;;;;;;71.97;13.23;;;;;;;;;;4989552;28;20070;-65
2023/05/28 00:55:15;;;;;;;56.88;12.07;;;;;;;;;;4986458;28;20066;-71
2023/05/28 00:57:42;;;;;;;63.33;13.32;;;;;;;;;;4988743;28;20046;-69
2023/05/28 01:00:10;;;;;;;97.80;15.52;;;;;;;;;;4973920;28;20050;-67
2023/05/28 01:02:37;;;;;;;56.15;12.55;;;;;;;;;;4974841;28;20050;-69
2023/05/28 01:05:04;;;;;;;53.17;11.73;;;;;;;;;;4988579;28;20046;-66
2023/05/28 01:07:31;;;;;;;82.82;15.00;;;;;;;;;;4981312;28;20130;-66
2023/05/28 01:09:58;;;;;;;70.60;13.93;;;;;;;;;;4969461;28;20404;-68
2023/05/28 01:12:25;;;;;;;43.03;10.40;;;;;;;;;;4986028;28;20046;-66
2023/05/28 01:14:53;;;;;;;70.88;12.30;;;;;;;;;;4990019;28;20080;-74
2023/05/28 01:17:20;;;;;;;51.10;11.15;;;;;;;;;;4987009;28;20050;-65
2023/05/28 01:19:47;;;;;;;66.15;12.48;;;;;;;;;;4984767;28;20057;-65
2023/05/28 01:22:16;;;;;;;54.40;12.05;;;;;;;;;;4990184;28;20484;-66
2023/05/28 01:24:44;;;;;;;60.97;12.88;;;;;;;;;;4989409;28;20046;-65
2023/05/28 01:27:12;;;;;;;68.15;12.63;;;;;;;;;;4956184;28;20482;-65
2023/05/28 01:29:39;;;;;;;49.42;11.60;;;;;;;;;;4991698;28;20448;-67
2023/05/28 01:32:05;;;;;;;48.20;11.40;;;;;;;;;;4988804;28;20141;-69
2023/05/28 01:34:32;;;;;;;75.53;13.02;;;;;;;;;;4989293;28;20085;-66
2023/05/28 01:37:01;;;;;;;52.35;11.82;;;;;;;;;;4989843;28;20100;-65
2023/05/28 01:39:33;;;;;;;64.55;13.05;;;;;;;;;;4989239;28;20142;-67
2023/05/28 01:42:01;;;;;;;57.58;12.32;;;;;;;;;;4989250;28;20145;-71
2023/05/28 01:44:29;;;;;;;83.72;13.05;;;;;;;;;;4989560;28;20462;-67
2023/05/28 01:46:56;;;;;;;71.35;12.48;;;;;;;;;;4972776;28;20455;-68
2023/05/28 01:49:23;;;;;;;54.90;11.15;;;;;;;;;;4974504;28;20054;-67
2023/05/28 01:51:51;;;;;;;53.22;11.80;;;;;;;;;;4988450;28;20042;-67
2023/05/28 01:54:18;;;;;;;63.20;12.98;;;;;;;;;;4989626;28;20459;-65
2023/05/28 01:56:45;;;;;;;65.45;12.70;;;;;;;;;;4989470;28;20046;-66
2023/05/28 01:59:12;;;;;;;53.67;10.68;;;;;;;;;;4989270;28;20400;-67
2023/05/28 02:01:38;;;;;;;245.13;24.42;;;;;;;;;;4995016;23;20081;-65
2023/05/28 02:04:08;;;;;;;83.20;13.48;;;;;;;;;;4948985;29;20065;-64
2023/05/28 02:06:36;;;;;;;95.30;13.50;;;;;;;;;;4967466;28;20074;-63
2023/05/28 02:09:02;;;;;;;71.45;12.98;;;;;;;;;;4953115;28;20044;-61
2023/05/28 02:11:29;;;;;;;70.65;12.68;;;;;;;;;;4954441;28;20145;-65
2023/05/28 02:13:56;;;;;;;59.78;11.35;;;;;;;;;;4953525;28;20053;-63
2023/05/28 02:16:24;;;;;;;96.53;13.50;;;;;;;;;;4934720;29;20123;-64
2023/05/28 02:18:54;;;;;;;81.32;12.82;;;;;;;;;;4953720;28;20059;-61
2023/05/28 02:21:22;;;;;;;45.63;11.48;;;;;;;;;;4967965;28;20043;-63
2023/05/28 02:23:49;;;;;;;84.40;13.70;;;;;;;;;;4952849;28;20102;-64
2023/05/28 02:26:17;;;;;;;72.03;11.82;;;;;;;;;;4970606;28;20041;-64
2023/05/28 02:28:43;;;;;;;93.20;14.20;;;;;;;;;;4952377;28;20151;-63
2023/05/28 02:31:10;;;;;;;76.38;12.73;;;;;;;;;;4950852;28;20047;-63
2023/05/28 02:33:41;;;;;;;58.42;10.75;;;;;;;;;;4953738;28;20047;-63
2023/05/28 02:36:11;;;;;;;67.55;11.50;;;;;;;;;;4964436;28;20042;-65
2023/05/28 02:38:38;;;;;;;87.75;13.38;;;;;;;;;;4952884;28;20047;-65
2023/05/28 02:41:06;;;;;;;81.03;12.55;;;;;;;;;;4968949;28;20046;-64
2023/05/28 02:43:34;;;;;;;110.38;14.38;;;;;;;;;;4952883;28;20047;-63
2023/05/28 02:46:04;;;;;;;55.67;10.70;;;;;;;;;;4953269;28;20046;-64
2023/05/28 02:48:32;;;;;;;74.57;12.70;;;;;;;;;;4952741;28;20050;-63
2023/05/28 02:50:59;;;;;;;74.38;12.48;;;;;;;;;;4949502;28;20043;-66
2023/05/28 02:53:45;;;;;;;97.80;14.25;;;;;;;;;;4961243;28;20069;-67
2023/05/28 02:56:12;;;;;;;80.95;13.15;;;;;;;;;;4939276;28;20677;-61
2023/05/28 02:58:43;;;;;;;91.07;12.55;;;;;;;;;;4952425;28;20146;-64
2023/05/28 03:01:10;;;;;;;75.10;12.13;;;;;;;;;;4949991;28;20043;-64
2023/05/28 03:03:36;;;;;;;92.30;14.65;;;;;;;;;;4974999;28;20054;-61
2023/05/28 03:06:04;;;;;;;50.17;11.32;;;;;;;;;;4958774;28;20138;-60
2023/05/28 03:08:37;;;;;;;80.68;12.77;;;;;;;;;;4937033;28;20057;-63
2023/05/28 03:11:03;;;;;;;79.75;12.95;;;;;;;;;;4969568;28;20098;-63
2023/05/28 03:13:30;;;;;;;119.75;15.40;;;;;;;;;;4968660;28;20533;-66
2023/05/28 03:15:58;;;;;;;62.75;13.38;;;;;;;;;;4952825;28;20133;-66
2023/05/28 03:18:26;;;;;;;101.05;14.73;;;;;;;;;;4968063;28;20074;-61
2023/05/28 03:20:53;;;;;;;80.47;13.07;;;;;;;;;;4951762;28;20043;-60
2023/05/28 03:23:20;;;;;;;46.42;11.00;;;;;;;;;;4952125;28;20058;-62
2023/05/28 03:25:59;;;;;;;108.63;15.35;;;;;;;;;;4968196;28;20398;-64
2023/05/28 03:28:26;;;;;;;76.35;12.77;;;;;;;;;;4953412;28;20146;-67
2023/05/28 03:31:11;;;;;;;92.10;13.70;;;;;;;;;;4953710;28;20051;-62
2023/05/28 03:33:38;;;;;;;101.40;14.35;;;;;;;;;;4953501;28;20062;-65
2023/05/28 03:36:06;;;;;;;51.90;11.70;;;;;;;;;;4949470;28;20488;-63
2023/05/28 03:38:33;;;;;;;83.18;12.48;;;;;;;;;;4939503;28;20042;-61
2023/05/28 03:41:00;;;;;;;75.53;12.88;;;;;;;;;;4971778;28;20086;-66
2023/05/28 03:43:27;;;;;;;60.13;11.27;;;;;;;;;;4972442;28;20046;-64
2023/05/28 03:45:54;;;;;;;86.57;14.13;;;;;;;;;;4971144;28;20105;-61
2023/05/28 03:48:20;;;;;;;77.57;12.35;;;;;;;;;;4970828;28;20577;-64
2023/05/28 03:50:47;;;;;;;86.65;13.25;;;;;;;;;;4958638;28;20137;-64
2023/05/28 03:53:14;;;;;;;99.05;13.93;;;;;;;;;;4955373;28;20480;-65
2023/05/28 03:55:41;;;;;;;119.60;16.25;;;;;;;;;;4972648;28;20057;-63
2023/05/28 03:58:09;;;;;;;60.72;12.32;;;;;;;;;;4954224;28;20050;-65
2023/05/28 04:00:35;;;;;;;100.57;13.68;;;;;;;;;;4970799;28;20403;-61
2023/05/28 04:03:03;;;;;;;66.00;10.48;;;;;;;;;;4959120;28;20101;-64
2023/05/28 04:05:30;;;;;;;56.05;9.88;;;;;;;;;;4967182;28;20043;-66
2023/05/28 04:07:57;;;;;;;63.00;9.05;;;;;;;;;;4966591;28;20050;-65
2023/05/28 04:10:24;;;;;;;71.03;9.20;;;;;;;;;;4952935;29;20514;-62
2023/05/28 04:12:52;;;;;;;44.97;7.43;;;;;;;;;;4970695;28;20058;-63
2023/05/28 04:15:19;;;;;;;50.15;7.05;;;;;;;;;;4970715;28;20670;-64
2023/05/28 04:17:45;;;;;;;67.13;8.77;;;;;;;;;;4954612;28;20635;-63
2023/05/28 04:20:12;;;;;;;76.63;9.15;;;;;;;;;;4972248;28;20086;-63
2023/05/28 04:22:39;;;;;;;75.60;9.65;;;;;;;;;;4972406;28;20134;-65
2023/05/28 04:25:06;;;;;;;67.65;8.38;;;;;;;;;;4972036;28;20046;-59
2023/05/28 04:27:33;;;;;;;54.38;8.55;;;;;;;;;;4970952;28;20153;-64
2023/05/28 04:30:00;;;;;;;59.90;8.85;;;;;;;;;;4954444;28;20042;-68
2023/05/28 04:32:27;;;;;;;85.65;9.48;;;;;;;;;;4970961;28;20062;-65
2023/05/28 04:34:54;;;;;;;39.55;7.13;;;;;;;;;;4971100;28;20051;-64
2023/05/28 04:37:21;;;;;;;49.72;7.45;;;;;;;;;;4955415;28;20049;-65
2023/05/28 04:39:48;;;;;;;59.47;7.93;;;;;;;;;;4970330;28;20082;-67
2023/05/28 04:42:17;;;;;;;86.63;9.50;;;;;;;;;;4970151;28;20074;-59
2023/05/28 04:44:44;;;;;;;61.30;8.18;;;;;;;;;;4955507;28;20053;-63
2023/05/28 04:47:12;;;;;;;87.20;9.50;;;;;;;;;;4954459;28;20042;-64
2023/05/28 04:49:43;;;;;;;62.00;7.75;;;;;;;;;;4954529;28;20141;-66
2023/05/28 04:52:09;;;;;;;63.60;7.45;;;;;;;;;;4955028;28;20054;-64
2023/05/28 04:54:36;;;;;;;107.75;11.60;;;;;;;;;;4970247;28;20150;-66
2023/05/28 04:57:05;;;;;;;57.28;7.35;;;;;;;;;;4951158;28;20130;-65
2023/05/28 04:59:32;;;;;;;62.15;7.32;;;;;;;;;;4959248;28;20047;-61
2023/05/28 05:01:59;;;;;;;76.78;8.50;;;;;;;;;;4935525;28;20051;-64
2023/05/28 05:04:27;;;;;;;47.95;6.47;;;;;;;;;;4971524;28;20051;-65
2023/05/28 05:06:54;;;;;;;38.65;5.85;;;;;;;;;;4954248;28;20110;-64
2023/05/28 05:09:22;;;;;;;69.13;11.05;;;;;;;;;;4971418;28;20412;-60
2023/05/28 05:11:49;;;;;;;40.00;6.10;;;;;;;;;;4954285;28;20047;-62
2023/05/28 05:14:16;;;;;;;84.55;8.70;;;;;;;;;;4970408;28;20078;-62
2023/05/28 05:16:45;;;;;;;98.55;9.63;;;;;;;;;;4952730;28;20055;-64
2023/05/28 05:19:12;;;;;;;28.98;5.18;;;;;;;;;;4972145;28;20480;-63
2023/05/28 05:21:40;;;;;;;53.60;6.57;;;;;;;;;;4971437;28;20058;-61
2023/05/28 05:24:06;;;;;;;78.10;7.80;;;;;;;;;;4953756;28;20057;-58
2023/05/28 05:26:33;;;;;;;43.85;6.07;;;;;;;;;;4953528;28;20049;-65
2023/05/28 05:29:00;;;;;;;61.97;7.38;;;;;;;;;;4971141;28;20082;-60
2023/05/28 05:31:30;;;;;;;78.60;8.43;;;;;;;;;;4966618;28;20050;-58
2023/05/28 05:33:57;;;;;;;28.25;5.25;;;;;;;;;;4970197;28;20063;-64
2023/05/28 05:37:02;;;;;;;33.38;5.43;;;;;;;;;;4944332;29;20051;-64
2023/05/28 05:39:58;;;;;;;57.85;7.03;;;;;;;;;;4911571;29;20060;-64
2023/05/28 05:42:39;;;;;;;56.90;7.10;;;;;;;;;;4913127;29;20573;-64
2023/05/28 05:45:09;;;;;;;78.93;8.20;;;;;;;;;;4916363;29;20048;-61
2023/05/28 05:47:37;;;;;;;75.25;8.55;;;;;;;;;;4906504;29;20074;-63
2023/05/28 05:50:05;;;;;;;65.85;7.65;;;;;;;;;;4924795;29;20158;-64
2023/05/28 05:52:32;;;;;;;66.55;7.50;;;;;;;;;;4910534;29;20055;-64
2023/05/28 05:55:00;;;;;;;35.65;5.70;;;;;;;;;;4896456;29;20060;-61
2023/05/28 05:57:26;;;;;;;39.95;5.30;;;;;;;;;;4906481;29;20063;-64
2023/05/28 05:59:54;;;;;;;83.03;8.40;;;;;;;;;;4910269;29;20441;-64
2023/05/28 06:02:21;;;;;;;38.78;5.25;;;;;;;;;;4894628;29;20060;-64
2023/05/28 06:04:49;;;;;;;85.03;8.68;;;;;;;;;;4910599;29;20064;-64
2023/05/28 06:07:39;;;;;;;85.55;8.98;;;;;;;;;;4859740;29;20124;-62
2023/05/28 06:10:17;;;;;;;79.40;9.00;;;;;;;;;;4833404;29;20050;-64
2023/05/28 06:12:44;;;;;;;65.32;8.45;;;;;;;;;;4832520;29;20056;-63
2023/05/28 06:15:11;;;;;;;38.70;9.48;;;;;;;;;;4814515;29;20065;-64
2023/05/28 06:17:38;;;;;;;91.82;16.02;;;;;;;;;;4874049;29;20092;-65
2023/05/28 06:20:06;;;;;;;65.13;29.67;;;;;;;;;;4876243;29;23011;-65
2023/05/28 06:22:33;;;;;;;154.82;141.45;;;;;;;;;;4901282;29;20070;-63
2023/05/28 06:25:02;;;;;;;169.88;131.25;;;;;;;;;;4891377;29;20068;-65
2023/05/28 06:27:31;;;;;;;178.00;163.40;;;;;;;;;;4880857;29;20135;-63
2023/05/28 06:29:59;;;;;;;220.30;203.00;;;;;;;;;;4898752;29;20052;-63
2023/05/28 06:32:25;;;;;;;269.33;243.63;;;;;;;;;;4875957;29;20392;-63
2023/05/28 06:34:52;;;;;;;259.67;235.82;;;;;;;;;;4895466;29;23790;-64
2023/05/28 06:37:19;;;;;;;262.25;241.13;;;;;;;;;;4896897;29;20060;-62
2023/05/28 06:55:27;;;;;;;1000.47;914.17;;;;;;;;;;4852506;26;1284219;-66
2023/05/28 06:58:12;;;;;;;1072.38;978.53;;;;;;;;;;5088889;28;20114;-65
2023/05/28 07:00:58;;;;;;;1047.75;960.90;;;;;;;;;;5082895;28;20102;-65
2023/05/28 07:03:31;;;;;;;1065.43;974.17;;;;;;;;;;5079111;28;20047;-65
2023/05/28 07:06:13;;;;;;;1064.38;973.90;;;;;;;;;;5089037;28;20059;-66
2023/05/28 07:08:44;;;;;;;1039.75;951.05;;;;;;;;;;5070155;28;20075;-64
2023/05/28 07:11:12;;;;;;;987.25;907.22;;;;;;;;;;5090800;28;20040;-65
2023/05/28 07:13:42;;;;;;;909.00;834.83;;;;;;;;;;5069449;28;20444;-65
2023/05/28 07:16:08;;;;;;;838.88;769.47;;;;;;;;;;5084740;28;20476;-63
2023/05/28 07:18:35;;;;;;;1012.05;922.05;;;;;;;;;;5069568;28;20064;-69
2023/05/28 07:21:05;;;;;;;1065.18;975.28;;;;;;;;;;5061832;28;20432;-72
2023/05/28 07:23:37;;;;;;;1026.30;939.78;;;;;;;;;;5069914;28;20500;-71
2023/05/28 07:26:04;;;;;;;1012.30;927.90;;;;;;;;;;5069138;28;20127;-64
2023/05/28 07:28:31;;;;;;;1093.80;996.88;;;;;;;;;;5069954;28;20063;-63
2023/05/28 07:30:58;;;;;;;832.58;764.95;;;;;;;;;;5068841;28;20040;-65
2023/05/28 07:33:24;;;;;;;690.28;633.72;;;;;;;;;;5069645;28;20040;-62
2023/05/28 07:35:52;;;;;;;363.25;335.08;;;;;;;;;;5061644;28;20516;-71
2023/05/28 07:38:19;;;;;;;59.95;38.50;;;;;;;;;;5078755;28;20040;-72
2023/05/28 07:40:49;;;;;;;59.03;37.97;;;;;;;;;;5067931;28;20489;-71
2023/05/28 07:43:36;;;;;;;35.10;14.80;;;;;;;;;;5081579;28;20451;-71
2023/05/28 07:46:08;;;;;;;78.70;67.15;;;;;;;;;;5069174;28;20083;-71
2023/05/28 07:48:45;;;;;;;185.82;171.88;;;;;;;;;;5058457;28;20690;-70
2023/05/28 07:51:19;;;;;;;146.63;134.55;;;;;;;;;;5076671;28;20527;-70
2023/05/28 07:53:56;;;;;;;158.88;96.93;;;;;;;;;;5051904;28;20051;-69
2023/05/28 07:56:23;;;;;;;59.95;53.65;;;;;;;;;;5053569;28;20044;-67
2023/05/28 07:58:51;;;;;;;52.58;29.92;;;;;;;;;;5051892;28;20064;-68
2023/05/28 08:01:18;;;;;;;25.17;7.85;;;;;;;;;;5067075;28;20048;-68
2023/05/28 08:03:50;;;;;;;68.07;8.90;;;;;;;;;;5057940;28;20041;-68
2023/05/28 08:06:21;;;;;;;27.58;9.65;;;;;;;;;;5051845;28;20443;-69
2023/05/28 08:08:47;;;;;;;54.13;29.98;;;;;;;;;;5064159;28;20421;-69
2023/05/28 08:11:14;;;;;;;39.72;15.65;;;;;;;;;;5071630;28;20044;-68
2023/05/28 08:13:41;;;;;;;32.08;5.00;;;;;;;;;;5055662;28;20585;-69
2023/05/28 08:16:12;;;;;;;27.17;6.20;;;;;;;;;;5052042;28;20076;-68
2023/05/28 08:18:59;;;;;;;40.88;5.90;;;;;;;;;;5055224;28;20049;-70
2023/05/28 08:21:27;;;;;;;22.58;6.13;;;;;;;;;;5054422;28;20470;-70
2023/05/28 08:23:59;;;;;;;19.23;4.65;;;;;;;;;;5055548;28;20063;-68
2023/05/28 08:26:28;;;;;;;53.90;6.35;;;;;;;;;;5027787;28;20135;-70
2023/05/28 08:28:55;;;;;;;21.13;2.92;;;;;;;;;;5069296;28;20094;-68
2023/05/28 08:31:23;;;;;;;34.10;4.47;;;;;;;;;;5054856;28;20051;-69
2023/05/28 08:34:16;;;;;;;38.75;4.60;;;;;;;;;;5065888;28;20501;-67
2023/05/28 08:36:45;;;;;;;60.25;26.80;;;;;;;;;;5052666;28;20045;-68
2023/05/28 08:39:26;;;;;;;69.80;34.97;;;;;;;;;;5049433;28;20051;-67
2023/05/28 08:41:57;;;;;;;44.28;18.98;;;;;;;;;;5038082;28;20515;-68
2023/05/28 08:44:25;;;;;;;27.13;10.18;;;;;;;;;;5055543;28;20061;-69
2023/05/28 08:46:53;;;;;;;58.35;8.02;;;;;;;;;;5072256;28;20064;-69
2023/05/28 08:49:32;;;;;;;26.33;13.40;;;;;;;;;;5054870;28;20052;-69
2023/05/28 08:51:59;;;;;;;90.60;34.50;;;;;;;;;;5056843;28;20086;-68
2023/05/28 08:54:35;;;;;;;58.80;18.85;;;;;;;;;;5054362;28;20063;-68
2023/05/28 08:57:03;;;;;;;25.05;12.43;;;;;;;;;;5034935;28;20123;-68
2023/05/28 08:59:34;;;;;;;62.85;11.30;;;;;;;;;;5050947;28;20591;-68
2023/05/28 09:02:02;;;;;;;41.67;8.80;;;;;;;;;;5070830;28;20048;-70
2023/05/28 09:04:29;;;;;;;31.58;7.22;;;;;;;;;;5062692;28;20052;-68
2023/05/28 09:06:56;;;;;;;23.23;6.20;;;;;;;;;;5038015;28;20043;-70
2023/05/28 09:09:32;;;;;;;43.15;7.00;;;;;;;;;;5051693;28;20127;-67
2023/05/28 09:12:09;;;;;;;49.85;7.25;;;;;;;;;;5071311;28;20072;-68
2023/05/28 09:14:41;;;;;;;88.78;14.30;;;;;;;;;;5051776;28;20078;-66
2023/05/28 09:17:09;;;;;;;87.18;8.68;;;;;;;;;;5027826;28;20080;-68
2023/05/28 09:19:39;;;;;;;24.27;4.72;;;;;;;;;;5054844;28;20045;-66
2023/05/28 09:22:06;;;;;;;32.22;4.05;;;;;;;;;;5051310;28;20056;-67
2023/05/28 09:24:48;;;;;;;29.42;3.40;;;;;;;;;;5050069;28;20106;-69
2023/05/28 09:27:24;;;;;;;39.33;4.88;;;;;;;;;;5058197;28;20045;-67
2023/05/28 09:29:52;;;;;;;34.85;4.53;;;;;;;;;;5051133;28;20041;-67
2023/05/28 09:32:22;;;;;;;32.90;4.40;;;;;;;;;;5068765;28;20041;-67
2023/05/28 09:34:49;;;;;;;23.70;3.70;;;;;;;;;;5069938;28;20036;-68
2023/05/28 09:37:17;;;;;;;47.17;5.13;;;;;;;;;;5054276;28;20063;-69
2023/05/28 09:39:44;;;;;;;135.43;122.88;;;;;;;;;;5032107;28;20127;-67
2023/05/28 09:42:11;;;;;;;114.03;104.20;;;;;;;;;;5070196;28;20075;-67
2023/05/28 09:44:40;;;;;;;113.70;82.43;;;;;;;;;;5053864;28;20523;-67
2023/05/28 09:47:14;;;;;;;76.28;68.32;;;;;;;;;;5069978;28;20075;-68
2023/05/28 09:49:47;;;;;;;250.52;71.63;;;;;;;;;;5053189;28;20044;-69
2023/05/28 09:52:19;;;;;;;102.72;53.83;;;;;;;;;;5041897;28;20401;-68
2023/05/28 09:54:51;;;;;;;56.75;39.30;;;;;;;;;;5070313;28;20083;-68
2023/05/28 09:57:22;;;;;;;48.83;36.35;;;;;;;;;;5065378;28;20049;-66
2023/05/28 09:59:53;;;;;;;87.38;64.55;;;;;;;;;;5036755;28;20037;-67
2023/05/28 10:02:36;;;;;;;301.52;278.48;;;;;;;;;;5067649;28;20109;-66
2023/05/28 10:05:05;;;;;;;583.30;537.20;;;;;;;;;;5053923;28;20497;-66
2023/05/28 10:07:33;;;;;;;679.65;625.20;;;;;;;;;;5064695;28;20048;-65
2023/05/28 10:10:01;;;;;;;833.80;760.08;;;;;;;;;;5053146;28;20052;-66
2023/05/28 10:12:28;;;;;;;829.53;762.00;;;;;;;;;;5051536;28;20057;-68
2023/05/28 10:14:56;;;;;;;842.60;774.53;;;;;;;;;;5052082;28;20071;-67
2023/05/28 10:17:23;;;;;;;677.92;624.63;;;;;;;;;;5037588;28;20049;-67
2023/05/28 10:19:50;;;;;;;458.75;426.90;;;;;;;;;;5064047;28;20056;-66
2023/05/28 10:22:16;;;;;;;350.92;327.33;;;;;;;;;;5045107;28;20127;-61
2023/05/28 10:24:44;;;;;;;106.28;97.00;;;;;;;;;;5068618;28;20507;-60
2023/05/28 10:27:18;;;;;;;29.23;3.50;;;;;;;;;;5052909;28;20063;-64
2023/05/28 10:29:46;;;;;;;70.10;5.65;;;;;;;;;;5049318;28;20098;-60
2023/05/28 10:32:13;;;;;;;61.35;4.35;;;;;;;;;;5065147;28;20045;-63
2023/05/28 10:34:40;;;;;;;19.45;2.30;;;;;;;;;;5065822;28;20106;-65
2023/05/28 10:37:09;;;;;;;30.80;3.13;;;;;;;;;;5053270;28;20044;-66
2023/05/28 10:39:42;;;;;;;58.97;6.63;;;;;;;;;;5066708;28;20072;-65
2023/05/28 10:42:10;;;;;;;43.70;4.35;;;;;;;;;;5068253;28;20039;-65
2023/05/28 10:45:08;;;;;;;58.83;7.15;;;;;;;;;;5050737;28;20487;-65
2023/05/28 10:47:36;;;;;;;294.52;18.20;;;;;;;;;;5049942;28;20048;-65
2023/05/28 10:50:03;;;;;;;26.95;2.92;;;;;;;;;;5065964;28;20045;-65
2023/05/28 10:52:42;;;;;;;32.38;3.63;;;;;;;;;;5062974;28;20098;-66
2023/05/28 10:55:10;;;;;;;55.88;5.10;;;;;;;;;;5067435;28;20060;-65
2023/05/28 10:57:40;;;;;;;44.33;6.47;;;;;;;;;;5052206;28;20055;-65
2023/05/28 11:00:11;;;;;;;40.45;5.22;;;;;;;;;;5050410;28;20120;-65
2023/05/28 11:02:38;;;;;;;43.72;4.15;;;;;;;;;;5066899;28;20055;-67
2023/05/28 11:05:05;;;;;;;40.75;3.55;;;;;;;;;;5053524;28;20049;-65
2023/05/28 11:07:42;;;;;;;26.75;3.05;;;;;;;;;;5045906;28;20131;-65
2023/05/28 11:10:10;;;;;;;26.00;3.05;;;;;;;;;;5048879;28;20033;-66
2023/05/28 11:12:37;;;;;;;36.55;3.55;;;;;;;;;;5050410;28;20032;-65
2023/05/28 11:15:05;;;;;;;36.30;3.83;;;;;;;;;;5050934;28;20040;-65
2023/05/28 11:17:41;;;;;;;37.67;3.45;;;;;;;;;;5069547;28;20052;-66
2023/05/28 11:20:18;;;;;;;25.45;2.78;;;;;;;;;;5071237;28;20044;-66
2023/05/28 11:22:44;;;;;;;30.73;2.97;;;;;;;;;;5052533;28;20053;-66
2023/05/28 11:25:12;;;;;;;120.80;8.55;;;;;;;;;;5067015;28;20037;-66
2023/05/28 11:27:40;;;;;;;40.35;4.05;;;;;;;;;;5068938;28;20124;-65
2023/05/28 11:30:06;;;;;;;36.35;3.67;;;;;;;;;;5073199;28;20040;-66
2023/05/28 11:32:33;;;;;;;53.97;4.95;;;;;;;;;;5068427;28;20094;-66
2023/05/28 11:35:01;;;;;;;48.17;4.28;;;;;;;;;;5070127;28;20417;-66
2023/05/28 11:37:32;;;;;;;32.95;20.92;;;;;;;;;;5072057;28;20072;-66
2023/05/28 11:40:00;;;;;;;60.67;10.65;;;;;;;;;;5069763;28;20037;-66
2023/05/28 11:42:28;;;;;;;45.85;24.25;;;;;;;;;;5066883;28;20044;-66
2023/05/28 11:44:55;;;;;;;381.23;355.00;;;;;;;;;;5071377;28;20482;-65
2023/05/28 11:47:22;;;;;;;349.17;324.75;;;;;;;;;;5065318;28;20061;-65
2023/05/28 11:49:48;;;;;;;329.77;307.15;;;;;;;;;;5072369;28;20040;-65
2023/05/28 11:52:19;;;;;;;259.65;241.50;;;;;;;;;;5061895;28;20064;-65
2023/05/28 11:54:54;;;;;;;239.77;221.50;;;;;;;;;;5069133;28;20052;-66
2023/05/28 11:57:28;;;;;;;227.55;212.25;;;;;;;;;;5072748;28;20111;-65
2023/05/28 11:59:55;;;;;;;218.13;201.13;;;;;;;;;;5052113;28;20036;-66
2023/05/28 12:02:23;;;;;;;189.75;173.95;;;;;;;;;;5070748;28;20485;-65
2023/05/28 12:04:56;;;;;;;165.32;150.02;;;;;;;;;;5035585;28;20056;-65
2023/05/28 12:07:31;;;;;;;162.20;149.73;;;;;;;;;;5070762;28;20068;-64
2023/05/28 12:10:01;;;;;;;137.05;124.78;;;;;;;;;;5071310;28;20047;-64
2023/05/28 12:12:30;;;;;;;108.95;97.43;;;;;;;;;;5067948;28;20056;-64
2023/05/28 12:15:00;;;;;;;81.93;67.15;;;;;;;;;;5072522;28;20119;-65
2023/05/28 12:17:36;;;;;;;54.58;42.95;;;;;;;;;;5056102;28;20056;-64
2023/05/28 12:20:05;;;;;;;40.50;24.15;;;;;;;;;;5046452;28;20052;-65
2023/05/28 12:22:34;;;;;;;110.43;24.55;;;;;;;;;;5046270;28;20044;-64
2023/05/28 12:25:01;;;;;;;36.22;17.23;;;;;;;;;;5070542;28;20048;-65
2023/05/28 12:27:28;;;;;;;39.75;14.30;;;;;;;;;;5064215;28;20048;-64
2023/05/28 12:29:55;;;;;;;58.83;13.10;;;;;;;;;;5073973;28;20040;-65
2023/05/28 12:32:21;;;;;;;52.92;9.40;;;;;;;;;;5075157;28;20499;-64
2023/05/28 12:34:49;;;;;;;23.00;6.38;;;;;;;;;;5068906;28;20416;-65
2023/05/28 12:37:16;;;;;;;42.08;6.93;;;;;;;;;;5053441;28;20044;-65
2023/05/28 12:39:43;;;;;;;45.50;5.72;;;;;;;;;;5073471;28;20048;-65
2023/05/28 12:42:10;;;;;;;39.50;5.05;;;;;;;;;;5073646;28;20040;-65
2023/05/28 12:44:37;;;;;;;62.75;6.20;;;;;;;;;;5055651;28;20040;-65
2023/05/28 12:47:03;;;;;;;109.80;7.90;;;;;;;;;;5071325;28;20045;-65
2023/05/28 12:49:30;;;;;;;24.55;3.58;;;;;;;;;;5073447;28;20072;-65
2023/05/28 12:51:57;;;;;;;45.92;4.93;;;;;;;;;;5071767;28;20110;-64
2023/05/28 12:54:24;;;;;;;48.08;5.75;;;;;;;;;;5071493;28;20529;-64
2023/05/28 12:56:51;;;;;;;70.68;6.75;;;;;;;;;;5071000;28;20087;-64
2023/05/28 12:59:25;;;;;;;37.00;4.00;;;;;;;;;;5072294;28;20044;-64
2023/05/28 13:01:51;;;;;;;248.95;19.23;;;;;;;;;;5059074;28;20532;-64
2023/05/28 13:04:20;;;;;;;47.55;3.90;;;;;;;;;;5073779;28;20052;-68
2023/05/28 13:06:47;;;;;;;37.03;3.85;;;;;;;;;;5073411;28;20052;-64
2023/05/28 13:09:14;;;;;;;26.77;2.92;;;;;;;;;;5071472;28;20036;-64
2023/05/28 13:11:42;;;;;;;75.05;6.43;;;;;;;;;;5075045;28;20044;-65
2023/05/28 13:14:08;;;;;;;15.77;2.30;;;;;;;;;;5061444;28;20049;-64
2023/05/28 13:16:35;;;;;;;42.15;4.10;;;;;;;;;;5072639;28;20119;-64
2023/05/28 13:19:03;;;;;;;22.08;2.53;;;;;;;;;;5071565;28;20033;-64
2023/05/28 13:21:31;;;;;;;18.65;1.95;;;;;;;;;;5077190;28;20056;-63
2023/05/28 13:23:58;;;;;;;33.30;3.33;;;;;;;;;;5078477;28;20036;-64
2023/05/28 13:26:26;;;;;;;84.97;6.15;;;;;;;;;;5072671;28;20102;-64
2023/05/28 13:28:53;;;;;;;31.80;2.83;;;;;;;;;;5069695;28;20420;-65
2023/05/28 13:31:20;;;;;;;39.10;3.45;;;;;;;;;;5060344;28;20057;-64
2023/05/28 13:33:46;;;;;;;44.22;3.50;;;;;;;;;;5057488;28;20047;-64
2023/05/28 13:36:13;;;;;;;35.65;3.92;;;;;;;;;;5075196;28;20470;-65
2023/05/28 13:38:43;;;;;;;71.22;6.32;;;;;;;;;;5070338;28;20558;-65
2023/05/28 13:41:11;;;;;;;56.03;4.93;;;;;;;;;;5058183;28;20052;-65
2023/05/28 13:43:38;;;;;;;28.60;3.75;;;;;;;;;;5075599;28;20125;-66
2023/05/28 13:46:05;;;;;;;79.03;5.70;;;;;;;;;;5069658;28;20041;-64
2023/05/28 13:48:32;;;;;;;98.47;7.95;;;;;;;;;;5071092;28;20041;-63
2023/05/28 13:50:59;;;;;;;441.08;22.95;;;;;;;;;;5057183;28;20098;-64
2023/05/28 13:53:28;;;;;;;113.90;10.23;;;;;;;;;;5059140;28;20049;-66
2023/05/28 13:55:55;;;;;;;31.10;4.45;;;;;;;;;;5055524;28;20056;-65
2023/05/28 13:58:22;;;;;;;52.25;11.27;;;;;;;;;;5071046;28;20051;-65
2023/05/28 14:00:49;;;;;;;289.50;268.05;;;;;;;;;;5073570;28;20485;-64
2023/05/28 14:03:16;;;;;;;187.52;172.55;;;;;;;;;;5071793;28;20093;-68
2023/05/28 14:05:44;;;;;;;320.23;294.70;;;;;;;;;;5075030;28;20029;-65
2023/05/28 14:08:11;;;;;;;184.70;170.45;;;;;;;;;;5039610;28;20044;-67
2023/05/28 14:10:38;;;;;;;506.80;467.65;;;;;;;;;;5058192;28;20044;-65
2023/05/28 14:13:05;;;;;;;173.75;159.05;;;;;;;;;;5055041;28;20043;-63
2023/05/28 14:15:32;;;;;;;178.85;166.57;;;;;;;;;;5056355;28;20045;-68
2023/05/28 14:17:58;;;;;;;377.85;343.73;;;;;;;;;;5070416;28;20048;-61
2023/05/28 14:20:25;;;;;;;523.25;483.67;;;;;;;;;;5069373;28;20127;-65
2023/05/28 14:22:52;;;;;;;159.10;146.65;;;;;;;;;;5067118;28;20053;-68
2023/05/28 14:25:19;;;;;;;139.73;128.75;;;;;;;;;;5066239;28;20036;-67
2023/05/28 14:27:46;;;;;;;366.10;339.00;;;;;;;;;;5069944;28;20051;-66
2023/05/28 14:30:29;;;;;;;76.18;69.30;;;;;;;;;;5067997;28;20076;-67
2023/05/28 14:32:55;;;;;;;50.88;42.30;;;;;;;;;;5069737;28;20055;-67
2023/05/28 14:35:22;;;;;;;112.07;102.60;;;;;;;;;;5068297;28;20098;-68
2023/05/28 14:37:50;;;;;;;565.42;268.00;;;;;;;;;;5070781;28;20036;-70
2023/05/28 14:40:17;;;;;;;387.38;359.45;;;;;;;;;;5053168;28;20048;-67
2023/05/28 14:42:45;;;;;;;56.97;37.17;;;;;;;;;;5052266;28;20044;-66